sensor_id;sensor_type;location;lat;lon;timestamp;pressure;altitude;pressure_sealevel;temperature;humidity
57827;BME280;43656;57.746;11.780;2023-04-06T00:00:48;101964.75;;;3.40;92.12
57827;BME280;43656;57.746;11.780;2023-04-06T00:03:13;101972.47;;;3.43;92.15
57827;BME280;43656;57.746;11.780;2023-04-06T00:05:39;101970.56;;;3.45;91.09
57827;BME280;43656;57.746;11.780;2023-04-06T00:08:05;101959.66;;;3.37;90.72
57827;BME280;43656;57.746;11.780;2023-04-06T00:10:31;101955.81;;;3.29;91.24
57827;BME280;43656;57.746;11.780;2023-04-06T00:12:58;101959.91;;;3.34;91.68
57827;BME280;43656;57.746;11.780;2023-04-06T00:15:23;101958.97;;;3.35;90.59
57827;BME280;43656;57.746;11.780;2023-04-06T00:17:49;101958.75;;;3.15;92.44
57827;BME280;43656;57.746;11.780;2023-04-06T00:20:15;101962.25;;;3.16;92.34
57827;BME280;43656;57.746;11.780;2023-04-06T00:22:41;101948.00;;;3.05;92.50
57827;BME280;43656;57.746;11.780;2023-04-06T00:25:06;101954.63;;;3.00;92.93
57827;BME280;43656;57.746;11.780;2023-04-06T00:27:32;101949.81;;;3.05;92.41
57827;BME280;43656;57.746;11.780;2023-04-06T00:29:57;101945.94;;;3.09;92.10
57827;BME280;43656;57.746;11.780;2023-04-06T00:32:22;101948.34;;;3.12;91.19
57827;BME280;43656;57.746;11.780;2023-04-06T00:34:48;101950.28;;;3.10;91.04
57827;BME280;43656;57.746;11.780;2023-04-06T00:37:13;101952.22;;;3.08;90.43
57827;BME280;43656;57.746;11.780;2023-04-06T00:39:39;101947.28;;;3.15;90.00
57827;BME280;43656;57.746;11.780;2023-04-06T00:42:11;101921.06;;;2.76;90.58
57827;BME280;43656;57.746;11.780;2023-04-06T00:44:38;101941.22;;;2.90;90.72
57827;BME280;43656;57.746;11.780;2023-04-06T00:47:03;101943.88;;;2.90;91.19
57827;BME280;43656;57.746;11.780;2023-04-06T00:49:29;101914.41;;;2.71;91.16
57827;BME280;43656;57.746;11.780;2023-04-06T00:51:54;101945.22;;;2.73;91.18
57827;BME280;43656;57.746;11.780;2023-04-06T00:54:20;101906.78;;;2.55;92.32
57827;BME280;43656;57.746;11.780;2023-04-06T00:56:45;101937.22;;;2.85;91.11
57827;BME280;43656;57.746;11.780;2023-04-06T00:59:11;101930.47;;;2.69;90.98
57827;BME280;43656;57.746;11.780;2023-04-06T01:01:37;101933.84;;;2.60;92.16
57827;BME280;43656;57.746;11.780;2023-04-06T01:04:02;101919.84;;;2.69;90.80
57827;BME280;43656;57.746;11.780;2023-04-06T01:06:28;101936.50;;;2.94;90.20
57827;BME280;43656;57.746;11.780;2023-04-06T01:08:54;101935.91;;;3.01;88.79
57827;BME280;43656;57.746;11.780;2023-04-06T01:11:20;101925.50;;;2.87;89.46
57827;BME280;43656;57.746;11.780;2023-04-06T01:13:46;101926.59;;;2.85;89.48
57827;BME280;43656;57.746;11.780;2023-04-06T01:16:12;101906.06;;;2.75;89.55
57827;BME280;43656;57.746;11.780;2023-04-06T01:18:38;101923.22;;;2.82;89.54
57827;BME280;43656;57.746;11.780;2023-04-06T01:21:03;101921.66;;;2.80;89.33
57827;BME280;43656;57.746;11.780;2023-04-06T01:23:29;101924.06;;;2.83;89.75
57827;BME280;43656;57.746;11.780;2023-04-06T01:25:54;101923.94;;;2.73;89.87
57827;BME280;43656;57.746;11.780;2023-04-06T01:28:20;101923.44;;;2.91;88.42
57827;BME280;43656;57.746;11.780;2023-04-06T01:30:45;101917.19;;;2.69;89.46
57827;BME280;43656;57.746;11.780;2023-04-06T01:33:11;101921.53;;;2.70;88.87
57827;BME280;43656;57.746;11.780;2023-04-06T01:35:36;101916.44;;;2.67;88.95
57827;BME280;43656;57.746;11.780;2023-04-06T01:38:02;101914.28;;;2.72;88.90
57827;BME280;43656;57.746;11.780;2023-04-06T01:40:27;101894.72;;;2.62;88.12
57827;BME280;43656;57.746;11.780;2023-04-06T01:42:53;101922.75;;;2.66;87.77
57827;BME280;43656;57.746;11.780;2023-04-06T01:45:18;101907.03;;;2.74;87.08
57827;BME280;43656;57.746;11.780;2023-04-06T01:47:43;101917.91;;;2.82;86.72
57827;BME280;43656;57.746;11.780;2023-04-06T01:50:09;101922.97;;;2.74;86.41
57827;BME280;43656;57.746;11.780;2023-04-06T01:52:34;101906.31;;;2.72;86.38
57827;BME280;43656;57.746;11.780;2023-04-06T01:55:00;101914.66;;;2.79;85.44
57827;BME280;43656;57.746;11.780;2023-04-06T01:57:25;101918.88;;;2.81;85.19
57827;BME280;43656;57.746;11.780;2023-04-06T01:59:51;101914.53;;;2.80;84.90
57827;BME280;43656;57.746;11.780;2023-04-06T02:02:16;101911.75;;;2.82;84.75
57827;BME280;43656;57.746;11.780;2023-04-06T02:04:42;101908.25;;;2.81;84.45
57827;BME280;43656;57.746;11.780;2023-04-06T02:07:07;101909.91;;;2.71;84.48
57827;BME280;43656;57.746;11.780;2023-04-06T02:09:32;101913.06;;;2.54;85.50
57827;BME280;43656;57.746;11.780;2023-04-06T02:11:58;101917.66;;;2.63;85.22
57827;BME280;43656;57.746;11.780;2023-04-06T02:14:25;101913.69;;;2.69;84.86
57827;BME280;43656;57.746;11.780;2023-04-06T02:16:51;101906.78;;;2.66;nan
57827;BME280;43656;57.746;11.780;2023-04-06T02:19:16;101913.09;;;2.65;84.17
57827;BME280;43656;57.746;11.780;2023-04-06T02:21:42;101916.31;;;2.57;84.87
57827;BME280;43656;57.746;11.780;2023-04-06T02:24:07;101913.81;;;2.56;85.05
57827;BME280;43656;57.746;11.780;2023-04-06T02:26:33;101908.72;;;2.53;84.43
57827;BME280;43656;57.746;11.780;2023-04-06T02:28:58;101913.44;;;2.49;84.80
57827;BME280;43656;57.746;11.780;2023-04-06T02:31:24;101905.31;;;2.51;83.99
57827;BME280;43656;57.746;11.780;2023-04-06T02:33:49;101905.44;;;2.38;83.85
57827;BME280;43656;57.746;11.780;2023-04-06T02:36:14;101902.91;;;2.37;83.74
57827;BME280;43656;57.746;11.780;2023-04-06T02:38:40;101905.56;;;2.37;84.34
57827;BME280;43656;57.746;11.780;2023-04-06T02:41:05;101903.97;;;2.34;84.40
57827;BME280;43656;57.746;11.780;2023-04-06T02:43:31;101907.16;;;2.39;83.91
57827;BME280;43656;57.746;11.780;2023-04-06T02:45:56;101904.50;;;2.39;83.89
57827;BME280;43656;57.746;11.780;2023-04-06T02:48:22;101878.72;;;2.17;83.91
57827;BME280;43656;57.746;11.780;2023-04-06T02:50:47;101907.00;;;2.29;83.68
57827;BME280;43656;57.746;11.780;2023-04-06T02:53:12;101908.47;;;2.33;84.18
57827;BME280;43656;57.746;11.780;2023-04-06T02:55:38;101909.44;;;2.32;83.84
57827;BME280;43656;57.746;11.780;2023-04-06T02:58:03;101879.72;;;2.16;83.84
57827;BME280;43656;57.746;11.780;2023-04-06T03:00:28;101912.19;;;2.31;83.94
57827;BME280;43656;57.746;11.780;2023-04-06T03:02:54;101898.44;;;2.26;83.70
57827;BME280;43656;57.746;11.780;2023-04-06T03:05:19;101904.34;;;2.29;83.88
57827;BME280;43656;57.746;11.780;2023-04-06T03:07:45;101908.69;;;2.30;83.42
57827;BME280;43656;57.746;11.780;2023-04-06T03:10:11;101903.28;;;2.32;83.89
57827;BME280;43656;57.746;11.780;2023-04-06T03:12:36;101913.16;;;2.30;83.70
57827;BME280;43656;57.746;11.780;2023-04-06T03:15:01;101899.38;;;2.25;83.99
57827;BME280;43656;57.746;11.780;2023-04-06T03:17:27;101898.91;;;2.20;83.33
57827;BME280;43656;57.746;11.780;2023-04-06T03:19:52;101892.00;;;2.17;83.67
57827;BME280;43656;57.746;11.780;2023-04-06T03:22:18;101917.03;;;2.26;83.60
57827;BME280;43656;57.746;11.780;2023-04-06T03:24:43;101913.38;;;2.27;83.11
57827;BME280;43656;57.746;11.780;2023-04-06T03:27:09;101912.56;;;2.26;83.51
57827;BME280;43656;57.746;11.780;2023-04-06T03:29:35;101920.06;;;2.32;83.70
57827;BME280;43656;57.746;11.780;2023-04-06T03:32:00;101918.34;;;2.31;83.89
57827;BME280;43656;57.746;11.780;2023-04-06T03:34:26;101921.59;;;2.35;83.23
57827;BME280;43656;57.746;11.780;2023-04-06T03:36:51;101924.03;;;2.38;83.08
57827;BME280;43656;57.746;11.780;2023-04-06T03:39:16;101929.09;;;2.41;83.52
57827;BME280;43656;57.746;11.780;2023-04-06T03:41:42;101902.16;;;2.23;83.10
57827;BME280;43656;57.746;11.780;2023-04-06T03:44:09;101926.34;;;2.43;83.45
57827;BME280;43656;57.746;11.780;2023-04-06T03:46:34;101924.28;;;2.46;83.44
57827;BME280;43656;57.746;11.780;2023-04-06T03:49:00;101933.09;;;2.47;83.42
57827;BME280;43656;57.746;11.780;2023-04-06T03:51:25;101922.34;;;2.48;84.05
57827;BME280;43656;57.746;11.780;2023-04-06T03:53:51;101926.34;;;2.54;83.91
57827;BME280;43656;57.746;11.780;2023-04-06T03:56:16;101933.47;;;2.53;83.22
57827;BME280;43656;57.746;11.780;2023-04-06T03:58:42;101937.22;;;2.51;83.59
57827;BME280;43656;57.746;11.780;2023-04-06T04:01:09;101929.97;;;2.53;83.58
57827;BME280;43656;57.746;11.780;2023-04-06T04:03:35;101933.34;;;2.55;83.66
57827;BME280;43656;57.746;11.780;2023-04-06T04:06:00;101931.44;;;2.57;83.60
57827;BME280;43656;57.746;11.780;2023-04-06T04:08:25;101924.66;;;2.53;83.16
57827;BME280;43656;57.746;11.780;2023-04-06T04:10:51;101926.34;;;2.54;83.37
57827;BME280;43656;57.746;11.780;2023-04-06T04:13:16;101923.69;;;2.54;83.98
57827;BME280;43656;57.746;11.780;2023-04-06T04:15:42;101931.78;;;2.64;83.64
57827;BME280;43656;57.746;11.780;2023-04-06T04:18:07;101931.56;;;2.67;83.16
57827;BME280;43656;57.746;11.780;2023-04-06T04:20:33;101931.44;;;2.68;83.22
57827;BME280;43656;57.746;11.780;2023-04-06T04:22:59;101932.28;;;2.69;83.29
57827;BME280;43656;57.746;11.780;2023-04-06T04:25:24;101937.72;;;2.67;83.44
57827;BME280;43656;57.746;11.780;2023-04-06T04:27:50;101923.47;;;2.68;83.33
57827;BME280;43656;57.746;11.780;2023-04-06T04:30:16;101933.59;;;2.63;84.07
57827;BME280;43656;57.746;11.780;2023-04-06T04:32:41;101931.94;;;2.62;84.40
57827;BME280;43656;57.746;11.780;2023-04-06T04:35:07;101923.09;;;2.73;84.20
57827;BME280;43656;57.746;11.780;2023-04-06T04:37:32;101927.22;;;2.77;83.64
57827;BME280;43656;57.746;11.780;2023-04-06T04:39:59;101920.81;;;2.68;84.20
57827;BME280;43656;57.746;11.780;2023-04-06T04:42:25;101929.03;;;2.65;84.85
57827;BME280;43656;57.746;11.780;2023-04-06T04:44:51;101936.25;;;2.63;84.90
57827;BME280;43656;57.746;11.780;2023-04-06T04:47:16;101932.16;;;2.59;84.61
57827;BME280;43656;57.746;11.780;2023-04-06T04:49:41;101914.28;;;2.50;85.25
57827;BME280;43656;57.746;11.780;2023-04-06T04:52:07;101930.44;;;2.58;85.80
57827;BME280;43656;57.746;11.780;2023-04-06T04:54:32;101930.81;;;2.53;85.41
57827;BME280;43656;57.746;11.780;2023-04-06T04:56:58;101929.59;;;2.57;85.96
57827;BME280;43656;57.746;11.780;2023-04-06T04:59:23;101905.81;;;2.56;85.06
57827;BME280;43656;57.746;11.780;2023-04-06T05:01:48;101940.13;;;2.70;84.54
57827;BME280;43656;57.746;11.780;2023-04-06T05:04:14;101940.63;;;2.75;84.08
57827;BME280;43656;57.746;11.780;2023-04-06T05:06:39;101940.16;;;2.81;84.13
57827;BME280;43656;57.746;11.780;2023-04-06T05:09:05;101948.00;;;2.83;83.41
57827;BME280;43656;57.746;11.780;2023-04-06T05:11:30;101938.19;;;2.83;84.14
57827;BME280;43656;57.746;11.780;2023-04-06T05:13:56;101938.44;;;2.69;84.88
57827;BME280;43656;57.746;11.780;2023-04-06T05:16:21;101913.94;;;2.66;84.10
57827;BME280;43656;57.746;11.780;2023-04-06T05:18:47;101940.38;;;2.90;83.86
57827;BME280;43656;57.746;11.780;2023-04-06T05:21:13;101939.28;;;2.81;84.01
57827;BME280;43656;57.746;11.780;2023-04-06T05:23:39;101933.84;;;2.71;84.96
57827;BME280;43656;57.746;11.780;2023-04-06T05:26:04;101936.13;;;2.65;85.80
57827;BME280;43656;57.746;11.780;2023-04-06T05:28:30;101910.16;;;2.57;86.08
57827;BME280;43656;57.746;11.780;2023-04-06T05:30:55;101941.72;;;2.73;86.82
57827;BME280;43656;57.746;11.780;2023-04-06T05:33:22;101930.00;;;2.87;86.25
57827;BME280;43656;57.746;11.780;2023-04-06T05:35:47;101913.31;;;2.96;85.83
57827;BME280;43656;57.746;11.780;2023-04-06T05:38:13;101945.66;;;3.23;85.08
57827;BME280;43656;57.746;11.780;2023-04-06T05:40:38;101952.88;;;3.44;83.90
57827;BME280;43656;57.746;11.780;2023-04-06T05:43:06;101944.25;;;3.63;84.03
57827;BME280;43656;57.746;11.780;2023-04-06T05:45:32;101945.78;;;3.76;83.47
57827;BME280;43656;57.746;11.780;2023-04-06T05:47:57;101942.66;;;3.71;83.49
57827;BME280;43656;57.746;11.780;2023-04-06T05:50:22;101938.09;;;3.62;84.20
57827;BME280;43656;57.746;11.780;2023-04-06T05:52:48;101920.53;;;3.60;83.81
57827;BME280;43656;57.746;11.780;2023-04-06T05:55:13;101941.94;;;3.69;84.42
57827;BME280;43656;57.746;11.780;2023-04-06T05:57:39;101945.53;;;3.36;86.43
57827;BME280;43656;57.746;11.780;2023-04-06T06:00:05;101940.78;;;3.40;86.55
57827;BME280;43656;57.746;11.780;2023-04-06T06:02:34;101956.56;;;3.75;84.49
57827;BME280;43656;57.746;11.780;2023-04-06T06:04:59;101952.53;;;3.48;86.93
57827;BME280;43656;57.746;11.780;2023-04-06T06:07:25;101937.50;;;3.47;87.31
57827;BME280;43656;57.746;11.780;2023-04-06T06:09:50;101955.38;;;3.57;88.10
57827;BME280;43656;57.746;11.780;2023-04-06T06:12:16;101960.00;;;3.55;87.64
57827;BME280;43656;57.746;11.780;2023-04-06T06:14:41;101951.78;;;3.58;88.14
57827;BME280;43656;57.746;11.780;2023-04-06T06:17:06;101930.28;;;3.82;85.80
57827;BME280;43656;57.746;11.780;2023-04-06T06:19:32;101951.56;;;3.82;86.11
57827;BME280;43656;57.746;11.780;2023-04-06T06:21:57;101941.28;;;3.45;89.12
57827;BME280;43656;57.746;11.780;2023-04-06T06:24:23;101939.41;;;3.57;89.51
57827;BME280;43656;57.746;11.780;2023-04-06T06:26:49;101931.13;;;3.39;90.32
57827;BME280;43656;57.746;11.780;2023-04-06T06:29:14;101952.31;;;3.72;89.65
57827;BME280;43656;57.746;11.780;2023-04-06T06:31:40;101929.53;;;3.47;90.81
57827;BME280;43656;57.746;11.780;2023-04-06T06:34:05;101945.91;;;3.75;90.44
57827;BME280;43656;57.746;11.780;2023-04-06T06:36:31;101948.19;;;4.00;87.69
57827;BME280;43656;57.746;11.780;2023-04-06T06:38:57;101950.66;;;3.71;89.49
57827;BME280;43656;57.746;11.780;2023-04-06T06:41:24;101953.03;;;4.07;87.54
57827;BME280;43656;57.746;11.780;2023-04-06T06:43:49;101936.34;;;4.05;87.59
57827;BME280;43656;57.746;11.780;2023-04-06T06:46:15;101947.28;;;3.90;89.33
57827;BME280;43656;57.746;11.780;2023-04-06T06:48:40;101956.19;;;4.00;88.96
57827;BME280;43656;57.746;11.780;2023-04-06T06:51:05;101959.59;;;4.03;89.01
57827;BME280;43656;57.746;11.780;2023-04-06T06:53:31;101958.19;;;3.87;90.65
57827;BME280;43656;57.746;11.780;2023-04-06T06:55:56;101958.00;;;4.00;90.63
57827;BME280;43656;57.746;11.780;2023-04-06T06:58:22;101954.72;;;3.75;91.21
57827;BME280;43656;57.746;11.780;2023-04-06T07:00:47;101941.69;;;3.72;91.40
57827;BME280;43656;57.746;11.780;2023-04-06T07:03:13;101951.03;;;4.20;88.78
57827;BME280;43656;57.746;11.780;2023-04-06T07:05:38;101960.31;;;4.26;88.96
57827;BME280;43656;57.746;11.780;2023-04-06T07:08:04;101952.16;;;4.17;88.80
57827;BME280;43656;57.746;11.780;2023-04-06T07:10:30;101962.25;;;4.23;88.94
57827;BME280;43656;57.746;11.780;2023-04-06T07:12:56;101955.81;;;4.05;90.05
57827;BME280;43656;57.746;11.780;2023-04-06T07:15:21;101963.38;;;4.42;87.69
57827;BME280;43656;57.746;11.780;2023-04-06T07:17:47;101959.63;;;4.44;86.87
57827;BME280;43656;57.746;11.780;2023-04-06T07:20:13;101967.91;;;4.09;90.85
57827;BME280;43656;57.746;11.780;2023-04-06T07:22:39;101959.03;;;4.41;88.94
57827;BME280;43656;57.746;11.780;2023-04-06T07:25:05;101943.94;;;4.09;90.41
57827;BME280;43656;57.746;11.780;2023-04-06T07:27:31;101965.19;;;4.41;89.15
57827;BME280;43656;57.746;11.780;2023-04-06T07:29:56;101946.16;;;4.46;88.62
57827;BME280;43656;57.746;11.780;2023-04-06T07:32:22;101966.75;;;4.23;91.26
57827;BME280;43656;57.746;11.780;2023-04-06T07:34:47;101971.81;;;4.26;90.88
57827;BME280;43656;57.746;11.780;2023-04-06T07:37:13;101973.31;;;4.40;90.03
57827;BME280;43656;57.746;11.780;2023-04-06T07:39:38;101973.53;;;4.48;90.51
57827;BME280;43656;57.746;11.780;2023-04-06T07:42:04;101967.72;;;4.43;90.88
57827;BME280;43656;57.746;11.780;2023-04-06T07:44:29;101968.03;;;4.50;90.82
57827;BME280;43656;57.746;11.780;2023-04-06T07:46:55;101974.22;;;4.50;90.73
57827;BME280;43656;57.746;11.780;2023-04-06T07:49:20;101975.97;;;4.40;92.07
57827;BME280;43656;57.746;11.780;2023-04-06T07:51:46;101961.34;;;4.55;90.88
57827;BME280;43656;57.746;11.780;2023-04-06T07:54:11;101959.06;;;4.71;90.38
57827;BME280;43656;57.746;11.780;2023-04-06T07:56:37;101972.22;;;4.94;89.67
57827;BME280;43656;57.746;11.780;2023-04-06T07:59:02;101970.50;;;4.62;91.81
57827;BME280;43656;57.746;11.780;2023-04-06T08:01:28;101970.06;;;4.57;92.39
57827;BME280;43656;57.746;11.780;2023-04-06T08:03:55;101977.00;;;4.90;91.01
57827;BME280;43656;57.746;11.780;2023-04-06T08:06:21;101972.75;;;4.88;90.28
57827;BME280;43656;57.746;11.780;2023-04-06T08:08:46;101959.13;;;4.81;90.10
57827;BME280;43656;57.746;11.780;2023-04-06T08:11:11;101980.28;;;5.04;89.71
57827;BME280;43656;57.746;11.780;2023-04-06T08:13:37;101975.78;;;5.04;89.87
57827;BME280;43656;57.746;11.780;2023-04-06T08:16:02;101977.19;;;5.08;90.59
57827;BME280;43656;57.746;11.780;2023-04-06T08:18:28;101979.47;;;5.23;89.61
57827;BME280;43656;57.746;11.780;2023-04-06T08:20:55;101984.28;;;5.29;89.47
57827;BME280;43656;57.746;11.780;2023-04-06T08:23:21;101976.31;;;4.98;90.94
57827;BME280;43656;57.746;11.780;2023-04-06T08:25:46;101985.31;;;4.97;91.54
57827;BME280;43656;57.746;11.780;2023-04-06T08:28:12;101986.94;;;4.88;92.40
57827;BME280;43656;57.746;11.780;2023-04-06T08:30:41;101990.69;;;5.16;91.56
57827;BME280;43656;57.746;11.780;2023-04-06T08:33:06;101987.59;;;4.81;92.03
57827;BME280;43656;57.746;11.780;2023-04-06T08:35:32;101987.09;;;4.97;91.47
57827;BME280;43656;57.746;11.780;2023-04-06T08:37:58;101986.53;;;4.93;92.55
57827;BME280;43656;57.746;11.780;2023-04-06T08:40:23;101997.66;;;4.98;92.62
57827;BME280;43656;57.746;11.780;2023-04-06T08:42:54;101979.28;;;5.05;91.86
57827;BME280;43656;57.746;11.780;2023-04-06T08:45:21;101971.13;;;5.06;91.17
57827;BME280;43656;57.746;11.780;2023-04-06T08:47:48;101952.69;;;4.84;91.61
57827;BME280;43656;57.746;11.780;2023-04-06T08:50:16;101993.69;;;4.92;92.66
57827;BME280;43656;57.746;11.780;2023-04-06T08:52:43;101993.88;;;5.01;92.29
57827;BME280;43656;57.746;11.780;2023-04-06T08:55:09;102000.31;;;4.98;91.76
57827;BME280;43656;57.746;11.780;2023-04-06T08:57:36;101992.66;;;5.14;91.19
57827;BME280;43656;57.746;11.780;2023-04-06T09:00:01;102005.16;;;5.14;91.17
57827;BME280;43656;57.746;11.780;2023-04-06T09:02:27;101997.16;;;5.14;91.14
57827;BME280;43656;57.746;11.780;2023-04-06T09:04:53;102002.91;;;5.19;89.90
57827;BME280;43656;57.746;11.780;2023-04-06T09:07:19;102001.00;;;5.31;89.02
57827;BME280;43656;57.746;11.780;2023-04-06T09:09:46;102006.63;;;5.28;89.93
57827;BME280;43656;57.746;11.780;2023-04-06T09:12:27;102011.72;;;5.00;92.12
57827;BME280;43656;57.746;11.780;2023-04-06T09:14:54;102008.91;;;5.02;92.58
57827;BME280;43656;57.746;11.780;2023-04-06T09:17:23;102016.00;;;4.91;93.28
57827;BME280;43656;57.746;11.780;2023-04-06T09:19:49;102020.13;;;4.75;94.06
57827;BME280;43656;57.746;11.780;2023-04-06T09:22:14;102006.38;;;5.00;93.50
57827;BME280;43656;57.746;11.780;2023-04-06T09:27:14;102004.22;;;4.94;93.45
57827;BME280;43656;57.746;11.780;2023-04-06T09:29:40;102016.56;;;5.26;92.12
57827;BME280;43656;57.746;11.780;2023-04-06T09:32:07;102010.88;;;5.40;91.28
57827;BME280;43656;57.746;11.780;2023-04-06T09:34:38;101995.88;;;5.08;92.91
57827;BME280;43656;57.746;11.780;2023-04-06T09:37:17;102020.19;;;5.15;93.38
57827;BME280;43656;57.746;11.780;2023-04-06T09:39:44;102025.72;;;5.33;92.99
57827;BME280;43656;57.746;11.780;2023-04-06T09:42:23;102015.38;;;5.49;92.92
57827;BME280;43656;57.746;11.780;2023-04-06T09:44:50;102019.78;;;5.60;92.20
57827;BME280;43656;57.746;11.780;2023-04-06T09:47:16;102024.97;;;5.61;91.38
57827;BME280;43656;57.746;11.780;2023-04-06T09:49:42;102015.22;;;5.41;92.19
57827;BME280;43656;57.746;11.780;2023-04-06T09:52:08;102019.09;;;5.68;90.54
57827;BME280;43656;57.746;11.780;2023-04-06T09:54:37;102020.41;;;5.83;89.73
57827;BME280;43656;57.746;11.780;2023-04-06T09:57:27;102018.03;;;6.09;90.01
57827;BME280;43656;57.746;11.780;2023-04-06T10:00:04;102014.97;;;6.04;90.04
57827;BME280;43656;57.746;11.780;2023-04-06T10:02:41;102012.44;;;6.12;89.95
57827;BME280;43656;57.746;11.780;2023-04-06T10:05:16;102007.34;;;6.28;89.32
57827;BME280;43656;57.746;11.780;2023-04-06T10:07:42;102018.47;;;6.33;88.51
57827;BME280;43656;57.746;11.780;2023-04-06T10:10:08;102015.94;;;6.22;89.46
57827;BME280;43656;57.746;11.780;2023-04-06T10:12:36;102010.59;;;6.32;89.61
57827;BME280;43656;57.746;11.780;2023-04-06T10:15:02;101982.88;;;6.43;88.66
57827;BME280;43656;57.746;11.780;2023-04-06T10:17:28;101953.78;;;6.30;88.86
57827;BME280;43656;57.746;11.780;2023-04-06T10:20:04;102015.59;;;6.83;89.25
57827;BME280;43656;57.746;11.780;2023-04-06T10:22:38;102010.31;;;7.01;88.63
57827;BME280;43656;57.746;11.780;2023-04-06T10:25:08;102015.88;;;7.18;88.25
57827;BME280;43656;57.746;11.780;2023-04-06T10:27:33;102010.66;;;7.26;87.78
57827;BME280;43656;57.746;11.780;2023-04-06T10:30:06;102010.88;;;7.42;87.58
57827;BME280;43656;57.746;11.780;2023-04-06T10:32:36;102006.06;;;7.64;87.54
57827;BME280;43656;57.746;11.780;2023-04-06T10:35:06;102004.56;;;7.79;86.98
57827;BME280;43656;57.746;11.780;2023-04-06T10:37:46;102008.72;;;7.91;88.51
57827;BME280;43656;57.746;11.780;2023-04-06T10:40:27;102006.13;;;7.82;88.51
57827;BME280;43656;57.746;11.780;2023-04-06T10:42:53;102001.59;;;7.82;88.87
57827;BME280;43656;57.746;11.780;2023-04-06T10:45:23;101997.00;;;7.92;88.72
57827;BME280;43656;57.746;11.780;2023-04-06T10:47:50;102016.38;;;8.22;88.40
57827;BME280;43656;57.746;11.780;2023-04-06T10:50:17;102001.97;;;8.23;88.57
57827;BME280;43656;57.746;11.780;2023-04-06T10:52:46;102005.22;;;8.44;88.54
57827;BME280;43656;57.746;11.780;2023-04-06T10:55:13;102002.97;;;8.40;89.30
57827;BME280;43656;57.746;11.780;2023-04-06T10:57:40;102007.25;;;8.51;89.31
57827;BME280;43656;57.746;11.780;2023-04-06T11:00:06;102009.06;;;8.68;89.20
57827;BME280;43656;57.746;11.780;2023-04-06T11:02:34;101999.41;;;8.75;88.77
57827;BME280;43656;57.746;11.780;2023-04-06T11:04:59;102017.03;;;8.78;89.26
57827;BME280;43656;57.746;11.780;2023-04-06T11:07:28;102003.06;;;9.00;88.60
57827;BME280;43656;57.746;11.780;2023-04-06T11:09:54;101991.66;;;8.98;88.74
57827;BME280;43656;57.746;11.780;2023-04-06T11:12:27;102022.31;;;9.22;89.28
57827;BME280;43656;57.746;11.780;2023-04-06T11:15:01;102020.53;;;9.38;89.65
57827;BME280;43656;57.746;11.780;2023-04-06T11:17:31;102015.81;;;9.32;89.74
57827;BME280;43656;57.746;11.780;2023-04-06T11:19:57;102008.00;;;9.55;89.13
57827;BME280;43656;57.746;11.780;2023-04-06T11:22:23;102013.44;;;9.63;89.46
57827;BME280;43656;57.746;11.780;2023-04-06T11:24:49;102018.81;;;9.63;89.84
57827;BME280;43656;57.746;11.780;2023-04-06T11:27:15;102019.72;;;9.97;88.36
57827;BME280;43656;57.746;11.780;2023-04-06T11:29:43;102018.38;;;10.09;87.93
57827;BME280;43656;57.746;11.780;2023-04-06T11:32:11;102015.03;;;10.07;88.72
57827;BME280;43656;57.746;11.780;2023-04-06T11:34:38;102008.63;;;10.16;88.91
57827;BME280;43656;57.746;11.780;2023-04-06T11:37:08;102017.19;;;10.20;88.74
57827;BME280;43656;57.746;11.780;2023-04-06T11:39:46;102012.66;;;10.12;88.30
57827;BME280;43656;57.746;11.780;2023-04-06T11:42:12;102020.63;;;10.30;87.52
57827;BME280;43656;57.746;11.780;2023-04-06T11:44:43;102017.88;;;10.22;87.39
57827;BME280;43656;57.746;11.780;2023-04-06T11:47:11;102015.06;;;10.40;86.82
57827;BME280;43656;57.746;11.780;2023-04-06T11:49:39;102028.69;;;10.38;86.54
57827;BME280;43656;57.746;11.780;2023-04-06T11:52:15;102019.09;;;10.52;85.85
57827;BME280;43656;57.746;11.780;2023-04-06T11:54:41;102010.50;;;10.24;86.55
57827;BME280;43656;57.746;11.780;2023-04-06T11:57:08;101995.22;;;10.41;85.37
57827;BME280;43656;57.746;11.780;2023-04-06T11:59:33;102023.66;;;10.60;84.59
57827;BME280;43656;57.746;11.780;2023-04-06T12:02:00;102019.59;;;10.72;84.47
57827;BME280;43656;57.746;11.780;2023-04-06T12:04:26;102028.81;;;10.86;83.19
57827;BME280;43656;57.746;11.780;2023-04-06T12:06:51;102002.94;;;10.68;83.17
57827;BME280;43656;57.746;11.780;2023-04-06T12:09:17;102019.59;;;10.80;82.42
57827;BME280;43656;57.746;11.780;2023-04-06T12:11:46;102032.53;;;10.93;81.69
57827;BME280;43656;57.746;11.780;2023-04-06T12:14:12;102032.75;;;11.22;81.03
57827;BME280;43656;57.746;11.780;2023-04-06T12:16:37;102014.84;;;10.90;81.41
57827;BME280;43656;57.746;11.780;2023-04-06T12:19:03;102025.97;;;10.79;81.06
57827;BME280;43656;57.746;11.780;2023-04-06T12:21:30;102029.81;;;11.01;80.38
57827;BME280;43656;57.746;11.780;2023-04-06T12:23:59;102026.72;;;11.12;79.39
57827;BME280;43656;57.746;11.780;2023-04-06T12:26:25;102020.41;;;10.97;79.28
57827;BME280;43656;57.746;11.780;2023-04-06T12:28:51;102024.72;;;11.14;78.47
57827;BME280;43656;57.746;11.780;2023-04-06T12:31:18;102030.44;;;11.11;77.48
57827;BME280;43656;57.746;11.780;2023-04-06T12:33:46;102032.47;;;11.17;76.66
57827;BME280;43656;57.746;11.780;2023-04-06T12:36:12;102030.44;;;11.11;76.06
57827;BME280;43656;57.746;11.780;2023-04-06T12:38:39;102032.66;;;11.08;76.05
57827;BME280;43656;57.746;11.780;2023-04-06T12:41:06;102041.06;;;11.04;75.54
57827;BME280;43656;57.746;11.780;2023-04-06T12:43:32;102050.16;;;10.95;74.61
57827;BME280;43656;57.746;11.780;2023-04-06T12:45:57;102037.50;;;11.12;73.85